KLCI

Laconia Municipal Airport

Laconia, New Hampshire, USA
METAR KLCI 180205Z AUTO 00000KT 9SM VCTS RA BKN013 BKN070 OVC085 21/21 A2994 RMK AO2 LTG DSNT ALQDS CIG 007V025 P0002
Observed Flight Rules
Aug-18 @ 02:05 UTC (26 minutes ago) Marginal Visual Flight Rules
Visibility Clouds Conditions
9 miles
  • Broken at 1,300' AGL
  • Broken at 7,000' AGL
  • Overcast at 8,500' AGL
  • Area Thunderstorm
  • Rain
Temperatures Readings Precipitation
Current 21°C / 70°F
Dewpoint 21°C / 70°F
Humidity 100%
Altimeter 29.94" Hg
Pressure 1014 hPa
Elevation 166
Current Rain 0.02
METAR KLCI 180205Z AUTO 00000KT 9SM VCTS RA BKN013 BKN070 OVC085 21/21 A2994 RMK AO2 LTG DSNT ALQDS CIG 007V025 P0002
Observed Flight Rules
Aug-18 @ 02:05 UTC
(26 minutes ago)
MVFR
Clouds
  • Broken at 1,300' AGL
  • Broken at 7,000' AGL
  • Overcast at 8,500' AGL
Conditions
  • Area Thunderstorm
  • Rain
Temperature Dewpoint
21°C / 70°F 21°C / 70°F
Humidity Altimeter Pressure
100% 29.94" Hg 1014 hPa
Current Rain
0.02